createdAt,value
2019-03-06T00:01:45.665Z,7.10
2019-03-06T00:04:19.699Z,7.45
2019-03-06T00:06:55.172Z,6.72
2019-03-06T00:09:30.860Z,7.30
2019-03-06T00:12:06.718Z,7.25
2019-03-06T00:14:43.129Z,7.55
2019-03-06T00:17:17.576Z,7.60
2019-03-06T00:19:53.440Z,7.05
2019-03-06T00:22:28.555Z,7.10
2019-03-06T00:25:03.711Z,7.42
2019-03-06T00:27:39.052Z,8.08
2019-03-06T00:30:15.026Z,8.03
2019-03-06T00:32:49.621Z,7.45
2019-03-06T00:35:26.697Z,7.78
2019-03-06T00:38:01.925Z,7.42
2019-03-06T00:40:42.155Z,7.80
2019-03-06T00:43:16.761Z,7.55
2019-03-06T00:45:51.508Z,7.30
2019-03-06T00:48:26.083Z,7.12
2019-03-06T00:51:02.802Z,8.00
2019-03-06T00:53:37.540Z,7.95
2019-03-06T00:56:13.998Z,7.83
2019-03-06T00:58:47.546Z,7.40
2019-03-06T01:01:22.049Z,7.45
2019-03-06T01:03:56.697Z,6.70
2019-03-06T01:06:31.315Z,7.55
2019-03-06T01:09:07.366Z,7.65
2019-03-06T01:11:41.203Z,7.33
2019-03-06T01:14:16.360Z,8.00
2019-03-06T01:16:51.213Z,7.40
2019-03-06T01:19:25.720Z,7.33
2019-03-06T01:22:00.734Z,6.78
2019-03-06T01:24:35.273Z,7.45
2019-03-06T01:27:10.010Z,7.78
2019-03-06T01:29:44.222Z,7.72
2019-03-06T01:32:19.440Z,8.00
2019-03-06T01:35:14.550Z,8.00
2019-03-06T01:38:04.965Z,8.20
2019-03-06T01:40:52.146Z,8.25
2019-03-06T01:43:36.607Z,8.95
2019-03-06T01:46:12.365Z,8.35
2019-03-06T01:48:50.481Z,8.90
2019-03-06T01:51:25.069Z,9.15
2019-03-06T01:54:00.361Z,9.70
2019-03-06T01:56:35.467Z,9.55
2019-03-06T01:59:10.705Z,10.18
2019-03-06T02:01:46.045Z,10.08
2019-03-06T02:04:21.633Z,10.08
2019-03-06T02:06:56.279Z,11.20
2019-03-06T02:09:32.646Z,11.93
2019-03-06T02:12:09.154Z,12.15
2019-03-06T02:14:43.424Z,11.35
2019-03-06T02:17:17.911Z,11.80
2019-03-06T02:19:52.913Z,12.13
2019-03-06T02:22:27.746Z,12.50
2019-03-06T02:25:02.897Z,12.63
2019-03-06T02:27:38.499Z,11.48
2019-03-06T02:30:18.192Z,11.97
2019-03-06T02:32:53.930Z,12.63
2019-03-06T02:35:29.498Z,13.62
2019-03-06T02:38:15.816Z,13.72
2019-03-06T02:40:49.899Z,13.78
2019-03-06T02:43:26.143Z,13.03
2019-03-06T02:46:01.743Z,12.00
2019-03-06T02:48:37.795Z,12.33
2019-03-06T02:51:14.248Z,11.60
2019-03-06T02:53:48.341Z,12.45
2019-03-06T02:56:22.939Z,11.55
2019-03-06T02:59:04.597Z,12.43
2019-03-06T03:01:57.119Z,12.00
2019-03-06T03:04:52.425Z,11.15
2019-03-06T03:07:28.844Z,11.15
2019-03-06T03:10:03.829Z,11.22
2019-03-06T03:12:38.488Z,10.85
2019-03-06T03:15:17.684Z,10.78
2019-03-06T03:17:53.168Z,9.90
2019-03-06T03:20:27.946Z,11.85
2019-03-06T03:23:04.728Z,11.45
2019-03-06T03:25:41.339Z,12.50
2019-03-06T03:28:15.699Z,11.05
2019-03-06T03:30:52.255Z,11.50
2019-03-06T03:33:30.468Z,12.10
2019-03-06T03:36:06.329Z,11.55
2019-03-06T03:38:41.168Z,10.88
2019-03-06T03:41:16.690Z,11.12
2019-03-06T03:43:52.870Z,10.30
2019-03-06T03:46:28.223Z,10.43
2019-03-06T03:49:03.630Z,10.78
2019-03-06T03:51:38.221Z,10.63
2019-03-06T03:54:14.784Z,10.38
2019-03-06T03:56:49.011Z,10.43
2019-03-06T03:59:27.788Z,10.43
2019-03-06T04:02:03.752Z,11.12
2019-03-06T04:04:39.172Z,10.55
2019-03-06T04:07:15.019Z,11.88
2019-03-06T04:09:52.840Z,17.37
2019-03-06T04:12:25.804Z,23.10
2019-03-06T04:15:02.045Z,20.23
2019-03-06T04:17:38.289Z,17.52
2019-03-06T04:20:15.876Z,14.23
2019-03-06T04:22:50.980Z,12.07
2019-03-06T04:25:25.524Z,10.80
2019-03-06T04:28:01.321Z,10.70
2019-03-06T04:30:38.025Z,10.80
2019-03-06T04:33:12.895Z,10.10
2019-03-06T04:35:49.135Z,11.05
2019-03-06T04:38:24.743Z,10.03
2019-03-06T04:41:03.173Z,11.05
2019-03-06T04:43:38.992Z,12.15
2019-03-06T04:46:13.147Z,14.70
2019-03-06T04:48:48.815Z,17.73
2019-03-06T04:51:25.004Z,20.25
2019-03-06T04:54:00.721Z,21.20
2019-03-06T04:56:35.546Z,20.08
2019-03-06T04:59:12.047Z,17.12
2019-03-06T05:01:47.375Z,15.80
2019-03-06T05:04:21.270Z,14.65
2019-03-06T05:06:57.655Z,13.83
2019-03-06T05:09:33.566Z,13.50
2019-03-06T05:12:09.721Z,14.73
2019-03-06T05:14:45.244Z,15.38
2019-03-06T05:17:45.850Z,15.55
2019-03-06T05:20:21.367Z,14.98
2019-03-06T05:22:56.301Z,14.90
2019-03-06T05:25:31.736Z,14.65
2019-03-06T05:28:06.625Z,13.60
2019-03-06T05:30:41.267Z,14.70
2019-03-06T05:33:15.691Z,15.13
2019-03-06T05:37:08.853Z,15.10
2019-03-06T05:39:43.501Z,15.18
2019-03-06T05:42:18.514Z,15.68
2019-03-06T05:44:52.921Z,16.15
2019-03-06T05:47:28.837Z,16.55
2019-03-06T05:50:02.068Z,17.60
2019-03-06T05:52:40.666Z,17.15
2019-03-06T05:55:15.930Z,17.15
2019-03-06T05:57:59.056Z,19.95
2019-03-06T06:00:35.820Z,17.90
2019-03-06T06:03:11.214Z,17.85
2019-03-06T06:05:46.429Z,19.00
2019-03-06T06:08:22.831Z,17.98
2019-03-06T06:10:58.883Z,17.55
2019-03-06T06:13:35.043Z,18.57
2019-03-06T06:16:13.402Z,16.95
2019-03-06T06:18:47.927Z,17.00
2019-03-06T06:21:42.226Z,18.35
2019-03-06T06:24:22.273Z,17.92
2019-03-06T06:26:56.784Z,18.48
2019-03-06T06:29:30.260Z,17.52
2019-03-06T06:32:05.332Z,19.35
2019-03-06T06:34:39.569Z,19.20
2019-03-06T06:37:13.921Z,22.73
2019-03-06T06:39:48.908Z,22.87
2019-03-06T06:42:24.791Z,23.67
2019-03-06T06:45:00.313Z,22.55
2019-03-06T06:47:35.472Z,20.95
2019-03-06T06:50:11.300Z,20.25
2019-03-06T06:53:53.129Z,19.82
2019-03-06T06:57:42.050Z,19.50
2019-03-06T07:01:11.573Z,19.73
2019-03-06T07:05:00.620Z,17.60
2019-03-06T07:07:59.499Z,18.40
2019-03-06T07:10:55.418Z,19.02
2019-03-06T07:13:46.143Z,19.67
2019-03-06T07:16:49.180Z,19.35
2019-03-06T07:19:53.363Z,19.27
2019-03-06T07:22:52.381Z,19.20
2019-03-06T07:25:46.361Z,19.37
2019-03-06T07:28:50.784Z,20.27
2019-03-06T07:31:47.450Z,18.98
2019-03-06T07:34:33.027Z,20.17
2019-03-06T07:37:13.589Z,20.95
2019-03-06T07:39:56.854Z,18.15
2019-03-06T07:42:45.366Z,17.00
2019-03-06T07:46:00.057Z,16.82
2019-03-06T07:49:05.238Z,17.20
2019-03-06T07:51:57.087Z,18.52
2019-03-06T07:54:51.687Z,16.62
2019-03-06T07:57:27.135Z,15.63
2019-03-06T08:00:00.312Z,17.45
2019-03-06T08:03:12.885Z,18.17
2019-03-06T08:05:56.553Z,18.50
2019-03-06T08:08:30.680Z,18.40
2019-03-06T08:11:06.239Z,17.98
2019-03-06T08:13:55.280Z,17.30
2019-03-06T08:16:39.349Z,18.52
2019-03-06T08:19:35.666Z,17.37
2019-03-06T08:22:17.093Z,17.12
2019-03-06T08:25:03.152Z,17.60
2019-03-06T08:27:38.263Z,17.30
2019-03-06T08:30:12.960Z,16.93
2019-03-06T08:32:49.120Z,17.57
2019-03-06T08:35:22.364Z,15.35
2019-03-06T08:37:55.925Z,16.80
2019-03-06T08:40:31.547Z,15.60
2019-03-06T08:43:05.598Z,14.60
2019-03-06T08:46:00.072Z,15.85
2019-03-06T08:48:42.789Z,15.75
2019-03-06T08:51:40.499Z,16.42
2019-03-06T08:54:35.749Z,18.48
2019-03-06T08:57:33.148Z,15.48
2019-03-06T09:00:37.234Z,15.00
2019-03-06T09:03:35.329Z,14.28
2019-03-06T09:06:37.919Z,14.75
2019-03-06T09:09:43.099Z,15.60
2019-03-06T09:12:24.159Z,14.43
2019-03-06T09:15:26.678Z,14.25
2019-03-06T09:18:14.380Z,13.70
2019-03-06T09:21:08.889Z,14.20
2019-03-06T09:24:05.626Z,13.98
2019-03-06T09:26:59.638Z,13.43
2019-03-06T09:29:44.679Z,14.50
2019-03-06T09:32:34.726Z,13.00
2019-03-06T09:35:24.778Z,13.13
2019-03-06T09:38:14.543Z,13.28
2019-03-06T09:41:11.108Z,12.63
2019-03-06T09:43:54.784Z,11.90
2019-03-06T09:46:53.567Z,13.03
2019-03-06T09:49:53.543Z,12.58
2019-03-06T09:52:44.188Z,12.37
2019-03-06T09:55:35.982Z,12.68
2019-03-06T09:58:25.990Z,12.68
2019-03-06T10:01:24.454Z,12.88
2019-03-06T10:04:29.490Z,12.20
2019-03-06T10:07:40.150Z,13.78
2019-03-06T10:10:46.379Z,12.85
2019-03-06T10:13:24.300Z,14.07
2019-03-06T10:16:14.504Z,12.75
2019-03-06T10:18:57.443Z,14.10
2019-03-06T10:21:31.858Z,12.05
2019-03-06T10:24:06.774Z,12.18
2019-03-06T10:26:41.625Z,8.63
2019-03-06T10:29:14.603Z,9.18
2019-03-06T10:31:48.081Z,9.68
2019-03-06T10:34:21.720Z,10.00
2019-03-06T10:36:56.341Z,10.35
2019-03-06T10:39:28.718Z,11.08
2019-03-06T10:42:01.780Z,9.60
2019-03-06T10:44:35.305Z,9.88
2019-03-06T10:47:10.376Z,9.63
2019-03-06T10:49:44.645Z,9.30
2019-03-06T10:52:17.621Z,9.45
2019-03-06T10:54:51.440Z,10.63
2019-03-06T10:57:26.059Z,9.13
2019-03-06T11:00:00.183Z,9.80
2019-03-06T11:02:34.906Z,9.70
2019-03-06T11:05:32.495Z,9.85
2019-03-06T11:08:07.519Z,8.88
2019-03-06T11:10:41.392Z,8.70
2019-03-06T11:13:15.645Z,8.33
2019-03-06T11:15:55.695Z,8.60
2019-03-06T11:18:25.074Z,9.38
2019-03-06T11:20:59.910Z,9.20
2019-03-06T11:23:34.366Z,8.85
2019-03-06T11:26:10.044Z,8.98
2019-03-06T11:28:45.909Z,9.38
2019-03-06T11:31:19.275Z,8.48
2019-03-06T11:33:51.983Z,8.63
2019-03-06T11:36:26.558Z,8.50
2019-03-06T11:38:59.894Z,7.45
2019-03-06T11:41:34.190Z,6.70
2019-03-06T11:44:08.603Z,7.40
2019-03-06T11:46:42.828Z,6.58
2019-03-06T11:49:16.658Z,6.83
2019-03-06T11:51:50.557Z,6.97
2019-03-06T11:54:24.960Z,6.37
2019-03-06T11:56:59.111Z,6.62
2019-03-06T11:59:33.042Z,7.87
2019-03-06T12:02:07.332Z,9.50
2019-03-06T12:04:41.911Z,10.78
2019-03-06T12:07:16.225Z,9.40
2019-03-06T12:09:50.578Z,7.83
2019-03-06T12:12:25.190Z,7.78
2019-03-06T12:14:59.775Z,7.65
2019-03-06T12:17:33.817Z,7.17
2019-03-06T12:20:08.566Z,7.80
2019-03-06T12:22:42.957Z,6.87
2019-03-06T12:25:18.326Z,8.53
2019-03-06T12:27:51.754Z,7.78
2019-03-06T12:30:26.893Z,7.50
2019-03-06T12:33:01.531Z,7.05
2019-03-06T12:35:38.641Z,7.00
2019-03-06T12:38:12.023Z,7.45
2019-03-06T12:40:46.229Z,6.92
2019-03-06T12:43:20.096Z,8.65
2019-03-06T12:46:28.315Z,7.17
2019-03-06T12:49:06.318Z,6.72
2019-03-06T12:51:41.341Z,7.42
2019-03-06T12:54:16.748Z,7.30
2019-03-06T12:56:52.208Z,8.13
2019-03-06T12:59:25.155Z,7.80
2019-03-06T13:01:58.371Z,7.50
2019-03-06T13:04:31.247Z,6.85
2019-03-06T13:07:04.840Z,5.78
2019-03-06T13:09:39.807Z,6.12
2019-03-06T13:12:13.941Z,6.72
2019-03-06T13:14:47.545Z,6.60
2019-03-06T13:17:21.065Z,6.45
2019-03-06T13:19:59.613Z,7.28
2019-03-06T13:22:33.157Z,6.72
2019-03-06T13:25:08.204Z,6.20
2019-03-06T13:27:42.235Z,5.87
2019-03-06T13:30:16.790Z,8.08
2019-03-06T13:33:14.250Z,8.33
2019-03-06T13:35:46.855Z,7.60
2019-03-06T13:38:21.553Z,7.67
2019-03-06T13:40:55.256Z,7.70
2019-03-06T13:43:46.471Z,9.30
2019-03-06T13:46:20.481Z,9.35
2019-03-06T13:48:53.848Z,9.43
2019-03-06T13:51:27.118Z,10.90
2019-03-06T13:54:00.097Z,13.25
2019-03-06T13:56:34.330Z,9.78
2019-03-06T13:59:27.077Z,9.65
2019-03-06T14:09:39.021Z,9.73
2019-03-06T14:12:15.366Z,11.18
2019-03-06T14:14:50.483Z,9.75
2019-03-06T14:17:26.762Z,13.13
2019-03-06T14:20:01.788Z,9.78
2019-03-06T14:22:37.420Z,8.85
2019-03-06T14:25:13.119Z,10.18
2019-03-06T14:27:48.746Z,8.35
2019-03-06T14:30:23.559Z,8.30
2019-03-06T14:32:57.741Z,8.38
2019-03-06T14:35:33.827Z,8.60
2019-03-06T14:38:10.652Z,15.38
2019-03-06T14:40:48.320Z,19.23
2019-03-06T14:43:22.707Z,14.20
2019-03-06T14:46:03.591Z,10.65
2019-03-06T14:48:38.462Z,10.35
2019-03-06T14:51:49.834Z,10.48
2019-03-06T14:54:04.030Z,10.23
2019-03-06T14:56:39.417Z,9.63
2019-03-06T14:59:16.530Z,9.10
2019-03-06T15:01:51.191Z,9.03
2019-03-06T15:04:24.668Z,11.40
2019-03-06T15:06:58.012Z,12.93
2019-03-06T15:09:31.788Z,13.50
2019-03-06T15:12:05.537Z,14.70
2019-03-06T15:14:40.864Z,13.80
2019-03-06T15:17:14.813Z,15.98
2019-03-06T15:19:49.774Z,14.45
2019-03-06T15:22:24.740Z,13.80
2019-03-06T15:24:59.271Z,14.35
2019-03-06T15:27:33.774Z,16.20
2019-03-06T15:30:09.279Z,16.25
2019-03-06T15:32:43.959Z,16.32
2019-03-06T15:35:20.323Z,13.78
2019-03-06T15:37:55.477Z,14.05
2019-03-06T15:40:32.211Z,15.90
2019-03-06T15:43:08.222Z,13.55
2019-03-06T15:45:44.365Z,11.65
2019-03-06T15:48:17.915Z,12.80
2019-03-06T15:50:51.696Z,11.43
2019-03-06T15:53:26.232Z,11.55
2019-03-06T15:56:03.647Z,11.50
2019-03-06T15:58:38.395Z,12.47
2019-03-06T16:01:13.145Z,12.05
2019-03-06T16:03:47.791Z,15.08
2019-03-06T16:06:22.140Z,13.88
2019-03-06T16:08:56.845Z,12.70
2019-03-06T16:11:32.595Z,14.53
2019-03-06T16:14:09.063Z,17.52
2019-03-06T16:16:46.127Z,20.43
2019-03-06T16:19:20.667Z,21.02
2019-03-06T16:21:57.663Z,19.62
2019-03-06T16:24:33.206Z,19.37
2019-03-06T16:27:09.313Z,20.45
2019-03-06T16:29:48.507Z,22.15
2019-03-06T16:32:24.910Z,20.48
2019-03-06T16:35:00.595Z,22.87
2019-03-06T16:37:35.823Z,24.00
2019-03-06T16:40:15.974Z,23.25
2019-03-06T16:42:52.436Z,24.55
2019-03-06T16:45:30.256Z,23.90
2019-03-06T16:48:06.623Z,22.75
2019-03-06T16:50:41.403Z,23.92
2019-03-06T16:53:17.696Z,22.17
2019-03-06T16:55:53.163Z,22.87
2019-03-06T16:58:27.588Z,22.90
2019-03-06T17:01:07.106Z,21.48
2019-03-06T17:03:41.700Z,25.10
2019-03-06T17:06:17.354Z,24.55
2019-03-06T17:08:52.547Z,22.70
2019-03-06T17:11:29.876Z,25.43
2019-03-06T17:14:05.287Z,24.00
2019-03-06T17:16:39.623Z,24.12
2019-03-06T17:19:15.655Z,26.45
2019-03-06T17:21:52.032Z,24.87
2019-03-06T17:24:28.281Z,30.23
2019-03-06T17:27:03.205Z,32.48
2019-03-06T17:29:38.261Z,32.15
2019-03-06T17:32:13.784Z,28.57
2019-03-06T17:34:49.336Z,28.20
2019-03-06T17:37:23.573Z,23.25
2019-03-06T17:39:58.068Z,23.40
2019-03-06T17:42:33.313Z,24.87
2019-03-06T17:45:09.156Z,25.37
2019-03-06T17:47:44.733Z,25.00
2019-03-06T17:50:20.568Z,24.52
2019-03-06T17:52:55.719Z,27.20
2019-03-06T17:55:30.946Z,32.78
2019-03-06T17:58:06.062Z,31.52
2019-03-06T18:00:56.004Z,31.33
2019-03-06T18:03:45.557Z,29.42
2019-03-06T18:06:21.834Z,28.67
2019-03-06T18:08:56.145Z,24.52
2019-03-06T18:11:33.030Z,26.80
2019-03-06T18:14:08.764Z,22.90
2019-03-06T18:16:44.212Z,20.70
2019-03-06T18:19:18.599Z,20.23
2019-03-06T18:21:52.606Z,20.37
2019-03-06T18:24:26.709Z,20.27
2019-03-06T18:27:01.895Z,21.23
2019-03-06T18:29:36.486Z,21.40
2019-03-06T18:32:11.780Z,21.25
2019-03-06T18:34:46.367Z,19.00
2019-03-06T18:37:21.248Z,18.23
2019-03-06T18:39:56.748Z,18.42
2019-03-06T18:42:32.533Z,19.05
2019-03-06T18:45:08.928Z,22.90
2019-03-06T18:47:43.726Z,22.70
2019-03-06T18:50:20.032Z,23.92
2019-03-06T18:52:55.859Z,24.37
2019-03-06T18:55:29.873Z,23.92
2019-03-06T18:58:04.877Z,27.95
2019-03-06T19:00:39.142Z,27.75
2019-03-06T19:03:16.418Z,22.95
2019-03-06T19:05:51.673Z,23.65
2019-03-06T19:08:31.207Z,26.23
2019-03-06T19:11:03.947Z,24.80
2019-03-06T19:13:38.110Z,24.72
2019-03-06T19:16:13.107Z,24.77
2019-03-06T19:18:49.133Z,24.23
2019-03-06T19:21:23.022Z,21.82
2019-03-06T19:23:56.754Z,23.10
2019-03-06T19:26:30.850Z,24.12
2019-03-06T19:29:06.019Z,25.45
2019-03-06T19:31:40.899Z,28.15
2019-03-06T19:34:15.421Z,30.00
2019-03-06T19:36:50.910Z,28.70
2019-03-06T19:39:25.672Z,25.45
2019-03-06T19:42:00.013Z,23.32
2019-03-06T19:44:35.462Z,22.55
2019-03-06T19:47:10.451Z,20.70
2019-03-06T19:49:45.839Z,23.22
2019-03-06T19:52:20.437Z,22.20
2019-03-06T19:54:55.372Z,22.95
2019-03-06T19:57:32.438Z,23.05
2019-03-06T20:00:10.165Z,22.45
2019-03-06T20:02:44.565Z,20.65
2019-03-06T20:05:18.635Z,21.73
2019-03-06T20:07:54.478Z,22.77
2019-03-06T20:10:29.918Z,22.07
2019-03-06T20:13:08.572Z,22.27
2019-03-06T20:15:43.058Z,22.35
2019-03-06T20:18:21.994Z,22.85
2019-03-06T20:20:58.377Z,24.90
2019-03-06T20:23:36.966Z,23.32
2019-03-06T20:26:14.690Z,20.75
2019-03-06T20:28:48.542Z,21.75
2019-03-06T20:31:24.197Z,20.82
2019-03-06T20:33:59.748Z,20.92
2019-03-06T20:36:33.194Z,20.97
2019-03-06T20:39:09.847Z,19.70
2019-03-06T20:41:45.370Z,17.87
2019-03-06T20:44:21.056Z,20.08
2019-03-06T20:46:57.980Z,18.55
2019-03-06T20:49:33.559Z,17.90
2019-03-06T20:52:08.837Z,19.20
2019-03-06T20:54:43.987Z,19.77
2019-03-06T20:57:18.488Z,20.68
2019-03-06T20:59:53.045Z,22.80
2019-03-06T21:02:28.089Z,22.62
2019-03-06T21:05:02.830Z,22.90
2019-03-06T21:07:44.850Z,21.10
2019-03-06T21:10:16.792Z,21.50
2019-03-06T21:12:52.407Z,22.15
2019-03-06T21:15:27.543Z,22.37
2019-03-06T21:18:02.515Z,22.75
2019-03-06T21:20:37.828Z,23.05
2019-03-06T21:23:11.166Z,23.62
2019-03-06T21:25:45.575Z,23.27
2019-03-06T21:28:20.007Z,23.02
2019-03-06T21:30:55.074Z,25.92
2019-03-06T21:33:28.553Z,26.65
2019-03-06T21:36:03.640Z,26.70
2019-03-06T21:38:38.708Z,26.68
2019-03-06T21:41:15.249Z,28.35
2019-03-06T21:43:50.614Z,30.92
2019-03-06T21:46:24.936Z,30.82
2019-03-06T21:48:59.476Z,31.52
2019-03-06T21:51:32.518Z,30.02
2019-03-06T21:54:07.025Z,28.62
2019-03-06T21:56:41.050Z,29.15
2019-03-06T21:59:14.005Z,30.75
2019-03-06T22:01:48.015Z,32.05
2019-03-06T22:04:21.417Z,32.13
2019-03-06T22:06:55.885Z,38.78
2019-03-06T22:09:30.598Z,37.58
2019-03-06T22:12:05.902Z,35.48
2019-03-06T22:14:40.970Z,37.17
2019-03-06T22:17:15.046Z,33.83
2019-03-06T22:19:50.332Z,34.25
2019-03-06T22:22:24.515Z,32.55
2019-03-06T22:24:59.570Z,33.58
2019-03-06T22:27:34.898Z,33.42
2019-03-06T22:30:12.140Z,32.55
2019-03-06T22:32:47.162Z,32.17
2019-03-06T22:35:22.373Z,31.65
2019-03-06T22:37:57.438Z,32.85
2019-03-06T22:40:32.633Z,34.30
2019-03-06T22:43:07.085Z,33.13
2019-03-06T22:45:41.427Z,32.55
2019-03-06T22:48:16.918Z,35.43
2019-03-06T22:50:51.571Z,34.10
2019-03-06T22:53:25.924Z,32.10
2019-03-06T22:56:01.019Z,31.65
2019-03-06T22:58:35.548Z,33.38
2019-03-06T23:01:33.459Z,32.85
2019-03-06T23:04:08.633Z,32.40
2019-03-06T23:06:43.433Z,32.08
2019-03-06T23:09:17.447Z,32.08
2019-03-06T23:11:51.571Z,31.50
2019-03-06T23:14:25.680Z,31.35
2019-03-06T23:17:01.261Z,28.02
2019-03-06T23:19:36.845Z,27.22
2019-03-06T23:22:10.894Z,27.40
2019-03-06T23:24:46.336Z,25.72
2019-03-06T23:27:21.514Z,24.50
2019-03-06T23:29:57.116Z,25.15
2019-03-06T23:32:32.043Z,24.72
2019-03-06T23:35:06.942Z,23.65
2019-03-06T23:37:41.191Z,23.20
2019-03-06T23:40:15.749Z,21.90
2019-03-06T23:42:50.292Z,21.30
2019-03-06T23:45:24.397Z,20.08
2019-03-06T23:47:59.283Z,23.38
2019-03-06T23:50:33.414Z,20.72
2019-03-06T23:53:09.988Z,18.75
2019-03-06T23:55:44.856Z,19.95
2019-03-06T23:58:19.721Z,19.87
